Thomasville, GA

9:49 PM EDT on July 11, 2014 (GMT -0400)
East Thomasville (KGATHOMA7) Elev 285 ft | 30.84 °N, 83.94 °W | Change Station

Current weather conditions updated 3 seconds ago

Clear
Clear
75.4 °F
Feels Like 74 °F
N
0.7
Wind Variable Wind from NNE
Gusts 1.6 mph

Tomorrow is forecast to be Cooler than today. Thunderstorms.

Today
High -- | Low -- °F
--% Chance of Precip.
Yesterday
High -- | Low -- °F
Precip. -- in
6:40 AM 8:41 PM
Full, 100% visible
Pressure 30.14 in
Visibility 10.0 miles
Clouds Clear
Heat Index 74 °F
Dew Point 73 °F
Humidity 93%
Rainfall 0.07 in
Snow Depth Not available.
UV 0 out of 12
Pollen 2.30 out of 12
Air Quality Not available.
Flu Activity Sporadic
METAR KTVI 120135Z AUTO 00000KT 10SM CLR 25/24 A3014 RMK AO2 LTG DSNT N AND S

More Conditions Fewer Conditions

Pressure 30.14 in
Visibility 10.0 miles
Clouds Clear
Heat Index 74 °F
Dew Point 73 °F
Humidity 93%
Rainfall 0.07 in
Snow Depth Not available.
UV 0 out of 12
Pollen 2.30 out of 12
Air Quality Not available.
Flu Activity Sporadic
METAR KTVI 120135Z AUTO 00000KT 10SM CLR 25/24 A3014 RMK AO2 LTG DSNT N AND S

More Conditions Fewer Conditions

10-Day Weather Forecast

Almanac

Astronomy

Jul. 11, 2014 Rise Set
Actual Time 6:40 AM EDT 8:41 PM EDT
Civil Twilight 6:13 AM EDT 9:08 PM EDT
Nautical Twilight 5:40 AM EDT 9:41 PM EDT
Astronomical Twilight 5:04 AM EDT 10:17 PM EDT
Moon 7:55 PM EDT (7/11) 5:48 AM EDT (7/11)
Length of Visible Light 14h 55m
Length of Day
14h 00m
Tomorrow will be 0m 49s shorter.
Full, 100% of the Moon is Illuminated
Today
Full
Jul 12
Full
Jul 18
Last Quarter
Jul 26
New
Aug 3
First Quarter

Today's Extremes

State Highs State Lows

Community

WunderPhotos

Upload Photos

1,732,634 photos uploaded!

WunderBlogs® & News

Nearby

Snow Depth

Station Depth Elevation
No new snow has been reported.

Earthquake Activity

City Distance Mag. Time & Date
No recent earthquake activity has been reported nearby.
Minimum magnitude displayed is 2.5.

Coastal Water Temperatures

Place Temperature
No Stations Reporting

Nearby Weather Stations

Station Location Temp. Heat Index Dew Point Humidity Wind Precip. Elev Updated Type
East Thomasville, Thomasville, GA 75.4 °F 74 °F 73 °F 93% NNE  at  0.7 mph 0.00 in / hr 285 ft 9:49 PM EDT Rapid Fire
Thomasville Downtown Area - CNS Internet, Thomasville, GA 77.3 °F 79 °F 74 °F 89% ENE  at  0.0 mph 0.00 in / hr 215 ft 9:49 PM EDT Rapid Fire
KJ4ZNK, Cairo, GA 79.5 °F 82 °F 67 °F 65% North  at  0.0 mph 0.00 in / hr 302 ft 8:09 PM EDT Rapid Fire
City of Moultrie Service Center, Moultrie, GA 74.7 °F 73 °F 73 °F 94% ENE  at  0.0 mph 0.00 in / hr 299 ft 9:37 PM EDT Normal
Pecan Acres, Monticello, FL 78.3 °F 81 °F 76 °F 93% NW  at  0.0 mph - / hr 105 ft 9:24 PM EDT Normal

Show More Stations Show Fewer Stations